KMDT Airport Information

Runway Information
Runway 13 Length 10001 ft width 200 ft
Elevation 308 ft Threshold 993 ft Heading 117
Runway 31 Length 10001 ft Width 200 ft
Elevation 308 ft Threshold 994 ft Heading 297
Airport Frequencies
Type A/D Name APP/DEP Frequency 118.25 MHZ
Type ATIS Name ATIS Frequency 118.8 MHZ
Type GND Name GND Frequency 121.7 MHZ
Type OPS Name ANG OPS Frequency 39.51 MHZ
Type TWR Name TWR Frequency 124.8 MHZ
Airport Navaids
Type VORTAC Name Harrisburg Frequency 112500 KHZ
Type NDB Name Enola Frequency 204 KHZ
Airport Weather Information & NOTAM
ADDS - METARS form results

(1853 UTC 17 July 2018)
 
METAR text: KMDT 171829Z 11006KT 10SM TSRA SCT055CB SCT070 OVC100 22/21 A2984 RMK AO2 WSHFT 1746 OCNL LTGICCC TS N-NE AND SW-W MOV E P0007 T02170206
Conditions at: KMDT (MIDDLETOWN , PA, US) observed 1829 UTC 17 July 2018
Temperature: 21.7°C (71°F)
Dewpoint: 20.6°C (69°F) [RH = 93%]
Pressure (altimeter): 29.84 inches Hg (1010.6 mb)
Winds: from the ESE (110 degrees) at 7 MPH (6 knots; 3.1 m/s)
Visibility: 10 or more miles (16+ km)
Ceiling: 10000 feet AGL
Clouds: scattered clouds at 5500 feet AGL
scattered clouds at 7000 feet AGL
overcast cloud deck at 10000 feet AGL
Weather: TSRA  (rain associated with thunderstorm(s))

METAR text: KMDT 171813Z 35014G21KT 4SM TSRA BR FEW014 OVC024CB 22/21 A2985 RMK AO2 WSHFT 1746 OCNL LTGICCC TS N-NE AND SW-W MOV E P0006 T02170206
Conditions at: KMDT (MIDDLETOWN , PA, US) observed 1813 UTC 17 July 2018
Temperature: 21.7°C (71°F)
Dewpoint: 20.6°C (69°F) [RH = 93%]
Pressure (altimeter): 29.85 inches Hg (1010.9 mb)
Winds: from the N (350 degrees) at 16 MPH (14 knots; 7.3 m/s)
gusting to 24 MPH (21 knots; 10.9 m/s)
Visibility: 4 miles (6 km)
Ceiling: 2400 feet AGL
Clouds: few clouds at 1400 feet AGL
overcast cloud deck at 2400 feet AGL
Weather: TSRA BR  (rain associated with thunderstorm(s), mist)

METAR text: KMDT 171800Z 35014G21KT 2SM R13/6000VP6000FT TSRA BR FEW014 OVC024CB 22/21 A2986 RMK AO2 WSHFT 1746 OCNL LTGICCC TS N-NE AND SW-W MOV E P0002 T02170206
Conditions at: KMDT (MIDDLETOWN , PA, US) observed 1800 UTC 17 July 2018
Temperature: 21.7°C (71°F)
Dewpoint: 20.6°C (69°F) [RH = 93%]
Pressure (altimeter): 29.86 inches Hg (1011.3 mb)
Winds: from the N (350 degrees) at 16 MPH (14 knots; 7.3 m/s)
gusting to 24 MPH (21 knots; 10.9 m/s)
Visibility: 2.00 miles (3.22 km)
Ceiling: 2400 feet AGL
Clouds: few clouds at 1400 feet AGL
overcast cloud deck at 2400 feet AGL
Weather: TSRA BR  (rain associated with thunderstorm(s), mist)

METAR text: KMDT 171756Z 35014G21KT 1 1/2SM R13/6000VP6000FT TSRA BR FEW014 OVC024CB 21/20 A2986 RMK AO2 LTG DSNT ALQDS TSB15 SLP110 OCNL LTGICCC TS N-NE AND SW-W MOV E P0084 60093 T02110200 10294 20211 53004
Conditions at: KMDT (MIDDLETOWN , PA, US) observed 1756 UTC 17 July 2018
Temperature: 21.1°C (70°F)
Dewpoint: 20.0°C (68°F) [RH = 93%]
Pressure (altimeter): 29.86 inches Hg (1011.3 mb)
[Sea-level pressure: 1011.0 mb]
Winds: from the N (350 degrees) at 16 MPH (14 knots; 7.3 m/s)
gusting to 24 MPH (21 knots; 10.9 m/s)
Visibility: 1.50 miles (2.41 km)
Ceiling: 2400 feet AGL
Clouds: few clouds at 1400 feet AGL
overcast cloud deck at 2400 feet AGL
Weather: TSRA BR  (rain associated with thunderstorm(s), mist)

METAR text: KMDT 171754Z 35014G21KT 1 1/2SM R13/6000VP6000FT TSRA BR FEW014 OVC024CB 21/20 A2986 RMK AO2 LTG DSNT ALQDS TSB15 OCNL LTGICCC TS N-NE AND SW-W MOV E P0083
Conditions at: KMDT (MIDDLETOWN , PA, US) observed 1754 UTC 17 July 2018
Temperature: 21.0°C (70°F)
Dewpoint: 20.0°C (68°F) [RH = 94%]
Pressure (altimeter): 29.86 inches Hg (1011.3 mb)
Winds: from the N (350 degrees) at 16 MPH (14 knots; 7.3 m/s)
gusting to 24 MPH (21 knots; 10.9 m/s)
Visibility: 1.50 miles (2.41 km)
Ceiling: 2400 feet AGL
Clouds: few clouds at 1400 feet AGL
overcast cloud deck at 2400 feet AGL
Weather: TSRA BR  (rain associated with thunderstorm(s), mist)